createdAt,value
2019-03-01T00:01:56.071Z,94527.52
2019-03-01T00:04:54.149Z,94527.59
2019-03-01T00:08:15.305Z,94530.13
2019-03-01T00:11:29.439Z,94532.80
2019-03-01T00:14:56.720Z,94525.12
2019-03-01T00:17:58.559Z,94523.65
2019-03-01T00:21:15.271Z,94529.34
2019-03-01T00:24:12.836Z,94527.06
2019-03-01T00:27:10.496Z,94522.00
2019-03-01T00:29:58.208Z,94519.55
2019-03-01T00:33:16.412Z,94519.64
2019-03-01T00:36:46.602Z,94519.77
2019-03-01T00:39:52.139Z,94511.26
2019-03-01T00:42:52.008Z,94519.55
2019-03-01T00:45:23.537Z,94511.70
2019-03-01T00:47:55.403Z,94504.50
2019-03-01T00:50:26.710Z,94503.13
2019-03-01T00:52:58.037Z,94494.30
2019-03-01T00:55:29.736Z,94494.42
2019-03-01T00:58:01.027Z,94490.76
2019-03-01T01:00:36.898Z,94487.94
2019-03-01T01:03:08.352Z,94478.08
2019-03-01T01:05:40.053Z,94481.62
2019-03-01T01:08:11.466Z,94475.58
2019-03-01T01:10:43.293Z,94478.94
2019-03-01T01:13:14.900Z,94477.09
2019-03-01T01:15:46.626Z,94474.22
2019-03-01T01:18:18.329Z,94469.12
2019-03-01T01:20:50.078Z,94476.25
2019-03-01T01:23:21.449Z,94476.20
2019-03-01T01:25:52.766Z,94484.68
2019-03-01T01:28:24.295Z,94481.89
2019-03-01T01:30:55.798Z,94485.23
2019-03-01T01:33:27.361Z,94490.66
2019-03-01T01:35:58.844Z,94488.63
2019-03-01T01:38:30.328Z,94481.09
2019-03-01T01:41:01.967Z,94497.30
2019-03-01T01:43:33.527Z,94492.02
2019-03-01T01:46:05.126Z,94497.20
2019-03-01T01:48:36.873Z,94497.53
2019-03-01T01:51:08.513Z,94486.36
2019-03-01T01:53:40.040Z,94489.31
2019-03-01T01:56:12.106Z,94486.03
2019-03-01T01:58:43.770Z,94489.77
2019-03-01T02:01:15.561Z,94489.05
2019-03-01T02:03:47.299Z,94497.47
2019-03-01T02:06:18.973Z,94487.48
2019-03-01T02:08:50.354Z,94488.92
2019-03-01T02:11:21.946Z,94485.80
2019-03-01T02:13:53.725Z,94492.05
2019-03-01T02:16:25.444Z,94488.27
2019-03-01T02:18:57.974Z,94485.13
2019-03-01T02:21:29.807Z,94486.76
2019-03-01T02:24:01.424Z,94484.07
2019-03-01T02:26:32.884Z,94475.44
2019-03-01T02:29:05.701Z,94476.59
2019-03-01T02:31:37.834Z,94472.73
2019-03-01T02:34:09.205Z,94479.97
2019-03-01T02:36:40.844Z,94471.29
2019-03-01T02:39:12.482Z,94456.73
2019-03-01T02:41:43.942Z,94457.24
2019-03-01T02:44:15.244Z,94451.64
2019-03-01T02:46:47.055Z,94454.17
2019-03-01T02:49:18.918Z,94450.98
2019-03-01T02:51:50.701Z,94453.84
2019-03-01T02:54:22.393Z,94456.78
2019-03-01T02:56:53.807Z,94466.75
2019-03-01T02:59:25.154Z,94475.66
2019-03-01T03:01:56.900Z,94476.64
2019-03-01T03:04:29.264Z,94480.14
2019-03-01T03:07:11.299Z,94478.64
2019-03-01T03:09:42.941Z,94472.44
2019-03-01T03:12:14.374Z,94479.51
2019-03-01T03:14:46.021Z,94472.46
2019-03-01T03:17:18.723Z,94478.72
2019-03-01T03:19:50.259Z,94476.33
2019-03-01T03:22:21.791Z,94480.03
2019-03-01T03:24:53.166Z,94481.86
2019-03-01T03:27:24.719Z,94484.60
2019-03-01T03:29:56.491Z,94484.31
2019-03-01T03:32:27.920Z,94486.47
2019-03-01T03:34:59.566Z,94490.86
2019-03-01T03:37:31.356Z,94492.13
2019-03-01T03:40:03.101Z,94493.28
2019-03-01T03:42:34.864Z,94494.31
2019-03-01T03:45:07.126Z,94507.10
2019-03-01T03:47:38.633Z,94503.44
2019-03-01T03:50:11.463Z,94512.06
2019-03-01T03:52:43.381Z,94516.95
2019-03-01T03:55:15.595Z,94510.91
2019-03-01T03:57:48.106Z,94494.17
2019-03-01T04:00:20.438Z,94499.83
2019-03-01T04:02:52.187Z,94500.77
2019-03-01T04:05:23.943Z,94500.16
2019-03-01T04:07:55.232Z,94492.92
2019-03-01T04:10:26.880Z,94494.98
2019-03-01T04:12:58.321Z,94502.94
2019-03-01T04:15:30.240Z,94498.91
2019-03-01T04:18:01.927Z,94502.24
2019-03-01T04:20:33.650Z,94506.60
2019-03-01T04:23:05.134Z,94515.03
2019-03-01T04:25:36.555Z,94505.55
2019-03-01T04:28:08.405Z,94512.12
2019-03-01T04:30:39.818Z,94504.81
2019-03-01T04:33:11.552Z,94506.81
2019-03-01T04:35:43.176Z,94497.02
2019-03-01T04:38:14.461Z,94509.40
2019-03-01T04:40:46.100Z,94514.31
2019-03-01T04:43:17.803Z,94528.41
2019-03-01T04:45:49.551Z,94523.72
2019-03-01T04:48:20.877Z,94524.77
2019-03-01T04:50:52.539Z,94521.75
2019-03-01T04:53:23.917Z,94529.02
2019-03-01T04:55:55.344Z,94525.02
2019-03-01T04:58:26.754Z,94529.59
2019-03-01T05:00:58.549Z,94527.66
2019-03-01T05:03:29.889Z,94515.52
2019-03-01T05:06:02.364Z,94516.54
2019-03-01T05:08:34.005Z,94513.17
2019-03-01T05:11:05.797Z,94521.06
2019-03-01T05:13:37.292Z,94523.72
2019-03-01T05:16:08.792Z,94526.42
2019-03-01T05:18:40.308Z,94516.59
2019-03-01T05:21:11.970Z,94531.48
2019-03-01T05:23:43.406Z,94525.52
2019-03-01T05:26:15.239Z,94535.02
2019-03-01T05:28:46.628Z,94535.89
2019-03-01T05:31:18.130Z,94533.20
2019-03-01T05:33:49.507Z,94542.59
2019-03-01T05:36:21.039Z,94539.88
2019-03-01T05:38:52.587Z,94544.03
2019-03-01T05:41:24.210Z,94543.81
2019-03-01T05:43:55.522Z,94549.60
2019-03-01T05:46:26.795Z,94547.01
2019-03-01T05:48:58.462Z,94550.09
2019-03-01T05:51:30.118Z,94545.99
2019-03-01T05:54:01.769Z,94556.16
2019-03-01T05:56:33.415Z,94561.73
2019-03-01T05:59:20.290Z,94562.95
2019-03-01T06:02:22.003Z,94564.78
2019-03-01T06:04:56.876Z,94555.16
2019-03-01T06:08:08.665Z,94564.09
2019-03-01T06:11:10.590Z,94559.73
2019-03-01T06:14:12.666Z,94555.69
2019-03-01T06:17:19.232Z,94557.89
2019-03-01T06:20:43.199Z,94567.75
2019-03-01T06:23:32.475Z,94557.13
2019-03-01T06:26:36.499Z,94555.13
2019-03-01T06:29:50.969Z,94556.91
2019-03-01T06:32:56.824Z,94553.01
2019-03-01T06:35:57.145Z,94552.42
2019-03-01T06:39:37.717Z,94554.55
2019-03-01T06:42:54.316Z,94553.94
2019-03-01T06:46:02.357Z,94549.38
2019-03-01T06:48:45.565Z,94548.01
2019-03-01T06:51:29.410Z,94549.52
2019-03-01T06:54:00.962Z,94562.16
2019-03-01T06:56:32.288Z,94560.02
2019-03-01T06:59:05.596Z,94566.03
2019-03-01T07:01:42.816Z,94559.14
2019-03-01T07:04:22.900Z,94559.34
2019-03-01T07:06:54.319Z,94558.97
2019-03-01T07:09:25.718Z,94558.97
2019-03-01T07:11:56.798Z,94559.80
2019-03-01T07:14:28.033Z,94555.80
2019-03-01T07:16:59.079Z,94550.96
2019-03-01T07:19:32.435Z,94550.96
2019-03-01T07:22:03.563Z,94554.20
2019-03-01T07:24:34.824Z,94551.42
2019-03-01T07:27:05.950Z,94547.30
2019-03-01T07:29:37.481Z,94540.38
2019-03-01T07:32:08.665Z,94539.17
2019-03-01T07:34:39.818Z,94539.17
2019-03-01T07:37:10.978Z,94550.50
2019-03-01T07:39:42.568Z,94550.50
2019-03-01T07:42:14.034Z,94548.45
2019-03-01T07:44:45.457Z,94537.56
2019-03-01T07:47:16.601Z,94537.56
2019-03-01T07:49:47.948Z,94553.83
2019-03-01T07:52:19.286Z,94542.41
2019-03-01T07:54:52.785Z,94547.75
2019-03-01T07:57:23.975Z,94542.52
2019-03-01T07:59:55.129Z,94553.55
2019-03-01T08:02:26.454Z,94548.61
2019-03-01T08:05:00.075Z,94544.55
2019-03-01T08:07:30.906Z,94559.12
2019-03-01T08:10:02.245Z,94552.94
2019-03-01T08:12:34.218Z,94553.76
2019-03-01T08:15:08.198Z,94563.55
2019-03-01T08:17:39.235Z,94566.25
2019-03-01T08:20:13.025Z,94568.91
2019-03-01T08:22:49.101Z,94568.91
2019-03-01T08:25:23.490Z,94570.14
2019-03-01T08:27:51.807Z,94571.29
2019-03-01T08:30:23.173Z,94576.41
2019-03-01T08:32:54.705Z,94574.77
2019-03-01T08:35:28.331Z,94581.30
2019-03-01T08:37:59.597Z,94578.03
2019-03-01T08:40:31.045Z,94580.02
2019-03-01T08:43:02.546Z,94576.03
2019-03-01T08:45:33.922Z,94587.28
2019-03-01T08:48:05.598Z,94589.08
2019-03-01T08:50:36.856Z,94589.08
2019-03-01T08:53:11.474Z,94597.70
2019-03-01T08:55:41.471Z,94597.70
2019-03-01T08:58:12.941Z,94591.58
2019-03-01T09:00:44.309Z,94578.57
2019-03-01T09:03:24.178Z,94578.57
2019-03-01T09:05:57.006Z,94580.69
2019-03-01T09:08:28.068Z,94583.21
2019-03-01T09:10:59.569Z,94571.89
2019-03-01T09:13:30.766Z,94570.91
2019-03-01T09:16:02.375Z,94575.59
2019-03-01T09:18:33.986Z,94569.53
2019-03-01T09:21:06.249Z,94568.11
2019-03-01T09:23:39.594Z,94577.20
2019-03-01T09:26:10.868Z,94576.21
2019-03-01T09:28:42.151Z,94567.71
2019-03-01T09:31:13.691Z,94567.71
2019-03-01T09:33:45.354Z,94567.56
2019-03-01T09:36:29.896Z,94563.31
2019-03-01T09:39:01.256Z,94561.70
2019-03-01T09:41:36.593Z,94559.51
2019-03-01T09:44:07.304Z,94551.67
2019-03-01T09:46:38.489Z,94557.05
2019-03-01T09:49:09.876Z,94554.72
2019-03-01T09:51:43.700Z,94546.41
2019-03-01T09:54:15.221Z,94553.90
2019-03-01T09:56:46.664Z,94553.90
2019-03-01T09:59:18.356Z,94549.70
2019-03-01T10:01:49.578Z,94549.70
2019-03-01T10:04:20.674Z,94557.58
2019-03-01T10:06:52.121Z,94544.22
2019-03-01T10:09:23.565Z,94545.66
2019-03-01T10:11:55.032Z,94533.89
2019-03-01T10:14:26.531Z,94533.89
2019-03-01T10:16:58.470Z,94531.64
2019-03-01T10:19:29.708Z,94541.53
2019-03-01T10:22:00.651Z,94536.70
2019-03-01T10:24:31.761Z,94532.05
2019-03-01T10:27:03.115Z,94525.41
2019-03-01T10:29:34.177Z,94525.41
2019-03-01T10:32:05.372Z,94520.20
2019-03-01T10:34:36.754Z,94503.23
2019-03-01T10:37:07.965Z,94508.40
2019-03-01T10:39:39.140Z,94500.12
2019-03-01T10:42:10.113Z,94502.32
2019-03-01T10:44:41.228Z,94503.99
2019-03-01T10:47:12.205Z,94503.83
2019-03-01T10:49:43.480Z,94504.41
2019-03-01T10:52:14.633Z,94488.55
2019-03-01T10:54:46.087Z,94483.77
2019-03-01T10:57:17.237Z,94485.88
2019-03-01T10:59:48.335Z,94482.44
2019-03-01T11:02:19.689Z,94485.31
2019-03-01T11:04:51.139Z,94483.50
2019-03-01T11:07:22.593Z,94472.09
2019-03-01T11:09:53.898Z,94481.95
2019-03-01T11:12:25.311Z,94474.16
2019-03-01T11:14:56.523Z,94459.03
2019-03-01T11:17:27.983Z,94467.27
2019-03-01T11:19:59.089Z,94452.31
2019-03-01T11:22:30.402Z,94458.60
2019-03-01T11:25:01.829Z,94445.46
2019-03-01T11:27:33.147Z,94450.88
2019-03-01T11:30:04.686Z,94443.86
2019-03-01T11:32:35.805Z,94440.93
2019-03-01T11:35:07.509Z,94441.67
2019-03-01T11:37:38.850Z,94447.27
2019-03-01T11:40:12.434Z,94445.33
2019-03-01T11:42:44.091Z,94442.05
2019-03-01T11:45:15.802Z,94433.11
2019-03-01T11:47:47.174Z,94444.55
2019-03-01T11:50:20.383Z,94439.96
2019-03-01T11:52:51.655Z,94442.49
2019-03-01T11:55:23.337Z,94435.00
2019-03-01T11:57:54.869Z,94436.64
2019-03-01T12:00:26.241Z,94430.17
2019-03-01T12:02:57.463Z,94428.41
2019-03-01T12:05:28.731Z,94419.10
2019-03-01T12:07:59.997Z,94423.36
2019-03-01T12:10:31.665Z,94420.36
2019-03-01T12:13:02.771Z,94413.53
2019-03-01T12:15:34.145Z,94404.83
2019-03-01T12:18:05.379Z,94416.41
2019-03-01T12:20:36.674Z,94397.16
2019-03-01T12:23:07.932Z,94394.64
2019-03-01T12:25:39.106Z,94397.96
2019-03-01T12:28:10.541Z,94389.91
2019-03-01T12:30:41.714Z,94392.30
2019-03-01T12:33:13.025Z,94384.44
2019-03-01T12:35:45.688Z,94393.09
2019-03-01T12:38:16.832Z,94381.74
2019-03-01T12:40:47.973Z,94383.12
2019-03-01T12:43:19.242Z,94378.82
2019-03-01T12:45:50.492Z,94370.20
2019-03-01T12:48:21.776Z,94373.70
2019-03-01T12:50:53.008Z,94370.31
2019-03-01T12:53:24.249Z,94367.13
2019-03-01T12:55:55.518Z,94365.47
2019-03-01T12:58:26.534Z,94360.85
2019-03-01T13:00:57.684Z,94365.58
2019-03-01T13:03:30.098Z,94352.47
2019-03-01T13:06:03.857Z,94355.69
2019-03-01T13:08:34.214Z,94355.69
2019-03-01T13:11:05.129Z,94354.12
2019-03-01T13:13:38.433Z,94360.05
2019-03-01T13:16:08.669Z,94353.50
2019-03-01T13:18:39.996Z,94352.54
2019-03-01T13:21:12.957Z,94348.80
2019-03-01T13:23:45.429Z,94340.83
2019-03-01T13:26:16.729Z,94345.19
2019-03-01T13:28:47.878Z,94343.00
2019-03-01T13:31:18.913Z,94343.28
2019-03-01T13:33:49.869Z,94347.89
2019-03-01T13:36:21.102Z,94343.27
2019-03-01T13:38:52.280Z,94344.66
2019-03-01T13:41:25.275Z,94335.34
2019-03-01T13:43:56.527Z,94334.02
2019-03-01T13:46:30.023Z,94333.91
2019-03-01T13:49:00.856Z,94331.77
2019-03-01T13:51:32.247Z,94330.31
2019-03-01T13:54:05.800Z,94328.06
2019-03-01T13:56:36.833Z,94318.77
2019-03-01T13:59:07.887Z,94301.67
2019-03-01T14:01:38.973Z,94301.67
2019-03-01T14:04:10.979Z,94307.45
2019-03-01T14:06:42.069Z,94301.78
2019-03-01T14:09:15.582Z,94302.40
2019-03-01T14:11:46.778Z,94303.20
2019-03-01T14:14:18.009Z,94293.45
2019-03-01T14:16:49.294Z,94292.80
2019-03-01T14:19:20.711Z,94292.65
2019-03-01T14:21:52.049Z,94282.19
2019-03-01T14:24:25.962Z,94280.59
2019-03-01T14:26:58.544Z,94279.16
2019-03-01T14:29:29.463Z,94290.01
2019-03-01T14:32:00.821Z,94284.03
2019-03-01T14:34:31.898Z,94296.86
2019-03-01T14:37:02.911Z,94302.23
2019-03-01T14:39:34.435Z,94292.22
2019-03-01T14:42:07.217Z,94291.11
2019-03-01T14:44:39.620Z,94289.61
2019-03-01T14:47:10.593Z,94277.48
2019-03-01T14:49:41.803Z,94279.38
2019-03-01T14:52:12.883Z,94271.42
2019-03-01T14:54:45.128Z,94278.99
2019-03-01T14:57:30.388Z,94269.91
2019-03-01T15:00:28.575Z,94267.39
2019-03-01T15:03:16.507Z,94268.70
2019-03-01T15:05:48.429Z,94274.47
2019-03-01T15:08:19.422Z,94274.47
2019-03-01T15:10:50.718Z,94279.86
2019-03-01T15:13:22.051Z,94283.59
2019-03-01T15:15:53.344Z,94286.93
2019-03-01T15:18:25.142Z,94286.93
2019-03-01T15:21:01.297Z,94288.75
2019-03-01T15:23:30.183Z,94281.64
2019-03-01T15:26:01.463Z,94281.64
2019-03-01T15:28:32.787Z,94285.80
2019-03-01T15:31:03.735Z,94287.79
2019-03-01T15:33:34.821Z,94285.33
2019-03-01T15:36:05.947Z,94285.33
2019-03-01T15:38:36.955Z,94290.16
2019-03-01T15:41:07.931Z,94290.16
2019-03-01T15:43:39.389Z,94286.89
2019-03-01T15:46:11.536Z,94296.80
2019-03-01T15:48:43.482Z,94296.14
2019-03-01T15:51:15.600Z,94296.14
2019-03-01T15:53:46.889Z,94295.59
2019-03-01T15:56:18.203Z,94295.59
2019-03-01T15:58:49.510Z,94295.81
2019-03-01T16:01:20.752Z,94297.52
2019-03-01T16:03:54.106Z,94303.03
2019-03-01T16:06:24.816Z,94302.14
2019-03-01T16:08:56.145Z,94302.75
2019-03-01T16:11:27.478Z,94302.75
2019-03-01T16:13:58.704Z,94306.46
2019-03-01T16:16:29.635Z,94311.98
2019-03-01T16:19:00.659Z,94321.89
2019-03-01T16:21:31.921Z,94321.89
2019-03-01T16:24:04.988Z,94317.22
2019-03-01T16:26:37.242Z,94322.84
2019-03-01T16:29:08.541Z,94324.92
2019-03-01T16:31:39.972Z,94327.34
2019-03-01T16:34:11.271Z,94329.22
2019-03-01T16:36:45.398Z,94330.77
2019-03-01T16:39:16.779Z,94333.02
2019-03-01T16:41:47.684Z,94329.11
2019-03-01T16:44:19.727Z,94333.65
2019-03-01T16:46:51.057Z,94331.89
2019-03-01T16:49:23.606Z,94332.31
2019-03-01T16:51:55.126Z,94331.15
2019-03-01T16:54:26.410Z,94328.58
2019-03-01T16:56:57.328Z,94331.02
2019-03-01T16:59:28.553Z,94335.59
2019-03-01T17:02:06.192Z,94332.33
2019-03-01T17:04:32.169Z,94335.20
2019-03-01T17:07:04.493Z,94335.59
2019-03-01T17:09:35.802Z,94335.89
2019-03-01T17:12:07.030Z,94338.21
2019-03-01T17:14:38.751Z,94331.16
2019-03-01T17:17:10.706Z,94332.33
2019-03-01T17:19:41.728Z,94339.83
2019-03-01T17:22:13.129Z,94340.70
2019-03-01T17:24:44.407Z,94344.75
2019-03-01T17:27:15.654Z,94345.19
2019-03-01T17:29:46.617Z,94354.52
2019-03-01T17:32:17.941Z,94351.89
2019-03-01T17:34:49.197Z,94361.66
2019-03-01T17:37:20.275Z,94364.50
2019-03-01T17:39:53.181Z,94363.41
2019-03-01T17:42:24.352Z,94362.79
2019-03-01T17:44:55.577Z,94369.14
2019-03-01T17:47:26.721Z,94373.95
2019-03-01T17:49:57.766Z,94364.91
2019-03-01T17:52:30.543Z,94371.09
2019-03-01T17:55:02.794Z,94368.08
2019-03-01T17:57:34.178Z,94367.11
2019-03-01T18:00:08.997Z,94370.66
2019-03-01T18:02:40.453Z,94376.32
2019-03-01T18:05:13.008Z,94379.40
2019-03-01T18:07:44.213Z,94379.59
2019-03-01T18:10:16.076Z,94377.91
2019-03-01T18:12:46.954Z,94374.52
2019-03-01T18:15:18.471Z,94372.41
2019-03-01T18:17:49.742Z,94367.83
2019-03-01T18:20:20.963Z,94374.48
2019-03-01T18:22:52.199Z,94371.56
2019-03-01T18:25:26.224Z,94376.72
2019-03-01T18:27:56.571Z,94374.47
2019-03-01T18:30:29.910Z,94372.75
2019-03-01T18:33:00.578Z,94369.66
2019-03-01T18:35:32.231Z,94372.23
2019-03-01T18:38:04.079Z,94368.37
2019-03-01T18:40:35.742Z,94373.27
2019-03-01T18:43:09.729Z,94375.94
2019-03-01T18:45:41.985Z,94377.43
2019-03-01T18:48:13.359Z,94374.44
2019-03-01T18:50:44.419Z,94373.83
2019-03-01T18:53:15.570Z,94385.51
2019-03-01T18:55:49.599Z,94379.64
2019-03-01T18:58:20.067Z,94387.74
2019-03-01T19:00:51.508Z,94384.60
2019-03-01T19:03:22.878Z,94386.89
2019-03-01T19:05:54.048Z,94383.49
2019-03-01T19:08:26.093Z,94387.08
2019-03-01T19:10:59.767Z,94380.57
2019-03-01T19:13:30.185Z,94382.09
2019-03-01T19:16:01.774Z,94374.33
2019-03-01T19:18:33.030Z,94378.69
2019-03-01T19:21:04.730Z,94378.07
2019-03-01T19:23:37.584Z,94377.59
2019-03-01T19:26:08.942Z,94379.08
2019-03-01T19:28:40.676Z,94379.08
2019-03-01T19:31:12.274Z,94383.23
2019-03-01T19:33:43.638Z,94382.05
2019-03-01T19:36:14.912Z,94384.66
2019-03-01T19:38:46.508Z,94382.23
2019-03-01T19:41:20.045Z,94382.20
2019-03-01T19:43:57.399Z,94381.70
2019-03-01T19:46:26.588Z,94379.28
2019-03-01T19:48:58.092Z,94376.02
2019-03-01T19:51:29.641Z,94381.70
2019-03-01T19:54:02.108Z,94377.53
2019-03-01T19:56:33.446Z,94373.20
2019-03-01T19:59:04.966Z,94378.91
2019-03-01T20:01:36.388Z,94381.77
2019-03-01T20:04:08.057Z,94378.33
2019-03-01T20:06:39.847Z,94371.44
2019-03-01T20:09:13.221Z,94373.23
2019-03-01T20:11:44.554Z,94370.74
2019-03-01T20:14:16.920Z,94371.52
2019-03-01T20:16:48.373Z,94361.51
2019-03-01T20:19:20.870Z,94359.51
2019-03-01T20:21:52.878Z,94368.13
2019-03-01T20:24:24.502Z,94363.09
2019-03-01T20:26:56.672Z,94369.41
2019-03-01T20:29:27.963Z,94367.74
2019-03-01T20:31:59.211Z,94363.66
2019-03-01T20:34:31.278Z,94363.53
2019-03-01T20:37:02.478Z,94368.05
2019-03-01T20:39:33.767Z,94357.42
2019-03-01T20:42:05.093Z,94358.91
2019-03-01T20:44:36.260Z,94353.06
2019-03-01T20:47:07.569Z,94354.74
2019-03-01T20:49:39.425Z,94352.94
2019-03-01T20:52:11.774Z,94354.16
2019-03-01T20:54:43.408Z,94348.26
2019-03-01T20:57:14.340Z,94351.67
2019-03-01T20:59:46.848Z,94350.53
2019-03-01T21:02:17.869Z,94350.18
2019-03-01T21:04:53.324Z,94352.27
2019-03-01T21:07:22.980Z,94352.16
2019-03-01T21:09:54.609Z,94349.23
2019-03-01T21:12:26.068Z,94353.70
2019-03-01T21:14:58.692Z,94359.78
2019-03-01T21:17:30.237Z,94360.01
2019-03-01T21:20:01.623Z,94356.28
2019-03-01T21:22:33.148Z,94367.23
2019-03-01T21:25:05.056Z,94370.97
2019-03-01T21:27:36.365Z,94368.19
2019-03-01T21:30:11.337Z,94364.62
2019-03-01T21:32:42.743Z,94365.42
2019-03-01T21:35:16.679Z,94362.36
2019-03-01T21:37:47.383Z,94366.41
2019-03-01T21:40:19.895Z,94360.39
2019-03-01T21:42:52.932Z,94367.22
2019-03-01T21:45:24.433Z,94370.14
2019-03-01T21:47:55.831Z,94364.61
2019-03-01T21:50:27.491Z,94366.22
2019-03-01T21:53:01.741Z,94363.63
2019-03-01T21:55:32.095Z,94361.84
2019-03-01T21:58:06.645Z,94353.20
2019-03-01T22:00:37.043Z,94349.80
2019-03-01T22:03:08.451Z,94354.17
2019-03-01T22:05:39.950Z,94352.72
2019-03-01T22:08:12.994Z,94353.36
2019-03-01T22:10:44.690Z,94349.77
2019-03-01T22:13:16.304Z,94347.98
2019-03-01T22:15:47.655Z,94354.33
2019-03-01T22:18:20.434Z,94346.98
2019-03-01T22:20:52.352Z,94348.90
2019-03-01T22:23:23.625Z,94349.08
2019-03-01T22:25:55.635Z,94350.22
2019-03-01T22:28:27.553Z,94351.69
2019-03-01T22:31:00.229Z,94342.75
2019-03-01T22:33:32.775Z,94345.16
2019-03-01T22:36:04.394Z,94342.90
2019-03-01T22:38:37.625Z,94343.05
2019-03-01T22:41:08.988Z,94351.92
2019-03-01T22:43:40.536Z,94347.84
2019-03-01T22:46:11.860Z,94347.05
2019-03-01T22:48:47.007Z,94345.75
2019-03-01T22:51:17.949Z,94344.80
2019-03-01T22:53:49.406Z,94348.06
2019-03-01T22:56:22.519Z,94350.31
2019-03-01T22:58:53.844Z,94348.04
2019-03-01T23:01:36.357Z,94355.43
2019-03-01T23:04:08.293Z,94358.25
2019-03-01T23:06:39.653Z,94357.08
2019-03-01T23:09:15.554Z,94352.58
2019-03-01T23:11:47.142Z,94351.89
2019-03-01T23:14:18.500Z,94350.85
2019-03-01T23:16:50.661Z,94346.31
2019-03-01T23:19:22.885Z,94350.48
2019-03-01T23:21:54.577Z,94356.98
2019-03-01T23:24:25.803Z,94354.67
2019-03-01T23:26:57.791Z,94363.59
2019-03-01T23:29:29.152Z,94355.75
2019-03-01T23:32:00.493Z,94358.22
2019-03-01T23:34:32.120Z,94358.48
2019-03-01T23:37:03.638Z,94363.05
2019-03-01T23:39:37.066Z,94361.17
2019-03-01T23:42:08.651Z,94362.47
2019-03-01T23:44:41.571Z,94360.95
2019-03-01T23:47:14.172Z,94362.27
2019-03-01T23:49:45.392Z,94361.78
2019-03-01T23:52:19.584Z,94362.92
2019-03-01T23:54:49.689Z,94360.48
2019-03-01T23:57:21.451Z,94363.41
2019-03-01T23:59:52.906Z,94366.14
